METAR Data
IDs: Format: Raw Decoded Include TAF

Data at: 1222 UTC 15 Jul 2020

KAND 151156Z AUTO 04005KT 10SM CLR 25/21 A3009 RMK AO2 SLP177 T02500211 10250 20211 51015
KAND 151056Z AUTO 00000KT 10SM CLR 23/21 A3008 RMK AO2 SLP173 T02280206
KAND 150956Z AUTO 00000KT 10SM CLR 22/21 A3006 RMK AO2 SLP167 T02170206
KAND 150856Z AUTO 11003KT 10SM CLR 22/21 A3004 RMK AO2 SLP162 T02170206 53002
KAND 150756Z AUTO 00000KT 10SM CLR 22/20 A3003 RMK AO2 SLP158 T02170200
KAND 150656Z AUTO 00000KT 10SM CLR 23/20 A3002 RMK AO2 SLP156 T02280200
KAND 150556Z AUTO 00000KT 10SM CLR 23/21 A3004 RMK AO2 SLP160 T02330206 10317 20233 58004
KAND 150456Z AUTO 00000KT 10SM CLR 24/21 A3006 RMK AO2 SLP167 T02440206 403390211
KAND 150356Z AUTO 00000KT 10SM CLR 26/21 A3005 RMK AO2 SLP166 T02560211
KAND 150256Z AUTO 00000KT 10SM CLR 26/22 A3005 RMK AO2 SLP164 T02560217 53015
KAND 150156Z AUTO 00000KT 10SM CLR 27/21 A3003 RMK AO2 SLP157 T02670211
KAND 150056Z AUTO 00000KT 10SM CLR 28/22 A3001 RMK AO2 SLP150 T02830217
KAND 142356Z AUTO 24004KT 10SM CLR 32/19 A3000 RMK AO2 SLP149 T03170189 10339 20311 53003
KAND 142256Z AUTO 24006KT 10SM CLR 33/18 A3000 RMK AO2 SLP147 T03280183
KAND 142156Z AUTO VRB05KT 10SM CLR 33/19 A2999 RMK AO2 SLP144 T03330189
KAND 142056Z AUTO 00000KT 10SM CLR 32/18 A2999 RMK AO2 SLP145 T03220183 56006
KAND 141956Z AUTO 00000KT 10SM CLR 33/19 A3000 RMK AO2 SLP147 T03280194
KAND 141856Z AUTO 33005KT 10SM SCT050 BKN060 BKN070 32/21 A3000 RMK AO2 SLP147 T03170206
KAND 141756Z AUTO 30004KT 10SM BKN046 OVC065 32/21 A3001 RMK AO2 SLP152 T03170206 10328 20250 58006
KAND 141656Z AUTO 00000KT 10SM CLR 32/21 A3002 RMK AO2 SLP154 T03170206
KAND 141556Z AUTO 12004KT 10SM CLR 31/21 A3003 RMK AO2 SLP157 T03060211
KAND 141456Z AUTO 09005KT 10SM CLR 30/21 A3003 RMK AO2 SLP158 T03000206 51013
KAND 141356Z AUTO 08005KT 10SM CLR 28/19 A3003 RMK AO2 SLP157 T02830194
KAND 141256Z AUTO 06006KT 10SM CLR 27/19 A3001 RMK AO2 SLP152 T02670189
KAND 141156Z AUTO 00000KT 10SM CLR 25/19 A2999 RMK AO2 SLP144 T02500189 10256 20211 51018
KAND 141056Z AUTO 00000KT 10SM CLR 21/19 A2997 RMK AO2 SLP138 T02110189
KAND 140956Z AUTO 00000KT 10SM CLR 22/18 A2995 RMK AO2 SLP132 T02220183
KAND 140856Z AUTO 00000KT 10SM CLR 23/19 A2994 RMK AO2 SLP126 T02280189 55002
KAND 140756Z AUTO 00000KT 10SM CLR 23/19 A2993 RMK AO2 SLP125 T02330189
KAND 140656Z AUTO 04003KT 10SM CLR 26/18 A2994 RMK AO2 SLP126 T02560178
KAND 140556Z AUTO 05003KT 10SM CLR 24/21 A2994 RMK AO2 SLP128 T02390206 10317 20239 50005
KAND 140456Z AUTO 00000KT 10SM CLR 24/21 A2995 RMK AO2 SLP130 T02440206 403330217
KAND 140356Z AUTO 06004KT 10SM CLR 24/21 A2994 RMK AO2 SLP127 T02390211
KAND 140256Z AUTO 24005KT 10SM CLR 25/22 A2993 RMK AO2 SLP123 T02500217 53015
KAND 140156Z AUTO 00000KT 10SM CLR 27/21 A2990 RMK AO2 SLP113 T02720206
KAND 140056Z AUTO 00000KT 10SM CLR 28/21 A2989 RMK AO2 SLP109 T02830211